createdAt,value
2019-02-22T00:01:37.271Z,8.70
2019-02-22T00:05:40.820Z,8.70
2019-02-22T00:09:49.427Z,8.60
2019-02-22T00:13:49.477Z,8.60
2019-02-22T00:17:52.941Z,8.60
2019-02-22T00:21:56.499Z,8.60
2019-02-22T00:25:59.978Z,8.60
2019-02-22T00:30:03.906Z,8.60
2019-02-22T00:34:07.506Z,8.60
2019-02-22T00:38:11.075Z,8.60
2019-02-22T00:42:14.670Z,8.60
2019-02-22T00:46:19.985Z,8.60
2019-02-22T00:50:23.441Z,8.60
2019-02-22T00:54:26.908Z,8.60
2019-02-22T00:58:30.364Z,8.50
2019-02-22T01:02:33.866Z,8.50
2019-02-22T01:06:37.269Z,8.40
2019-02-22T01:10:40.787Z,8.40
2019-02-22T01:14:44.298Z,8.40
2019-02-22T01:18:47.699Z,8.30
2019-02-22T01:22:51.219Z,8.30
2019-02-22T01:26:54.793Z,8.30
2019-02-22T01:30:58.344Z,8.20
2019-02-22T01:35:01.974Z,8.20
2019-02-22T01:39:05.879Z,8.20
2019-02-22T01:43:11.302Z,8.10
2019-02-22T01:47:14.540Z,8.10
2019-02-22T01:51:18.013Z,8.10
2019-02-22T01:55:21.635Z,8.10
2019-02-22T01:59:25.183Z,8.10
2019-02-22T02:03:28.653Z,8.10
2019-02-22T02:07:32.156Z,8.10
2019-02-22T02:11:35.711Z,8.10
2019-02-22T02:15:39.223Z,8.00
2019-02-22T02:19:42.755Z,8.10
2019-02-22T02:23:46.248Z,8.10
2019-02-22T02:27:49.719Z,8.10
2019-02-22T02:31:53.373Z,8.00
2019-02-22T02:35:56.886Z,8.00
2019-02-22T02:40:00.456Z,8.00
2019-02-22T02:44:04.000Z,8.10
2019-02-22T02:48:07.486Z,8.00
2019-02-22T02:52:11.974Z,8.00
2019-02-22T02:56:15.528Z,8.00
2019-02-22T03:00:19.058Z,8.00
2019-02-22T03:04:22.587Z,8.00
2019-02-22T03:08:27.703Z,8.00
2019-02-22T03:12:31.253Z,8.00
2019-02-22T03:16:34.921Z,8.00
2019-02-22T03:20:38.443Z,8.00
2019-02-22T03:24:41.991Z,8.00
2019-02-22T03:28:45.504Z,8.00
2019-02-22T03:32:49.012Z,8.00
2019-02-22T03:36:52.400Z,7.90
2019-02-22T03:40:55.932Z,8.00
2019-02-22T03:44:59.444Z,8.00
2019-02-22T03:49:02.841Z,8.00
2019-02-22T03:53:07.964Z,8.00
2019-02-22T03:57:11.386Z,8.00
2019-02-22T04:01:15.095Z,8.00
2019-02-22T04:05:18.526Z,8.00
2019-02-22T04:09:22.009Z,8.00
2019-02-22T04:13:25.623Z,8.00
2019-02-22T04:17:29.133Z,8.00
2019-02-22T04:21:32.685Z,8.00
2019-02-22T04:25:38.061Z,8.00
2019-02-22T04:29:41.345Z,7.90
2019-02-22T04:33:44.858Z,7.90
2019-02-22T04:37:48.370Z,7.90
2019-02-22T04:41:58.148Z,7.90
2019-02-22T04:45:56.988Z,7.90
2019-02-22T04:50:00.540Z,7.90
2019-02-22T04:54:03.934Z,7.90
2019-02-22T04:58:07.461Z,7.90
2019-02-22T05:02:10.974Z,7.90
2019-02-22T05:06:14.484Z,7.90
2019-02-22T05:10:17.995Z,7.90
2019-02-22T05:14:21.506Z,7.90
2019-02-22T05:18:25.018Z,7.80
2019-02-22T05:22:28.521Z,7.70
2019-02-22T05:26:32.040Z,7.70
2019-02-22T05:30:36.553Z,7.70
2019-02-22T05:34:40.150Z,7.70
2019-02-22T05:38:46.371Z,7.60
2019-02-22T05:42:49.878Z,7.60
2019-02-22T05:47:00.373Z,7.60
2019-02-22T05:50:59.545Z,7.60
2019-02-22T05:55:03.083Z,7.60
2019-02-22T05:59:06.585Z,7.50
2019-02-22T06:03:09.996Z,7.50
2019-02-22T06:07:14.542Z,7.40
2019-02-22T06:11:20.169Z,7.40
2019-02-22T06:15:25.254Z,7.40
2019-02-22T06:19:28.709Z,7.40
2019-02-22T06:23:32.221Z,7.30
2019-02-22T06:27:35.771Z,7.20
2019-02-22T06:31:39.203Z,7.20
2019-02-22T06:35:45.763Z,7.20
2019-02-22T06:39:49.275Z,7.20
2019-02-22T06:43:52.786Z,7.30
2019-02-22T06:47:56.297Z,7.20
2019-02-22T06:51:59.810Z,7.30
2019-02-22T06:56:03.290Z,7.20
2019-02-22T07:00:10.068Z,7.20
2019-02-22T07:04:13.582Z,7.20
2019-02-22T07:08:17.143Z,7.10
2019-02-22T07:12:27.986Z,7.10
2019-02-22T07:16:31.486Z,7.10
2019-02-22T07:20:34.996Z,6.90
2019-02-22T07:24:38.678Z,6.70
2019-02-22T07:28:42.128Z,6.50
2019-02-22T07:32:45.735Z,6.20
2019-02-22T07:36:49.397Z,6.00
2019-02-22T07:40:52.913Z,6.00
2019-02-22T07:44:56.369Z,6.00
2019-02-22T07:48:59.931Z,5.90
2019-02-22T07:53:03.402Z,5.80
2019-02-22T07:57:07.886Z,5.80
2019-02-22T08:01:11.385Z,5.80
2019-02-22T08:05:14.902Z,5.90
2019-02-22T08:09:18.410Z,5.90
2019-02-22T08:13:21.900Z,5.90
2019-02-22T08:17:25.396Z,5.90
2019-02-22T08:21:28.949Z,5.90
2019-02-22T08:25:33.385Z,5.80
2019-02-22T08:29:38.365Z,5.70
2019-02-22T08:33:41.929Z,5.60
2019-02-22T08:37:45.538Z,5.50
2019-02-22T08:41:48.977Z,5.60
2019-02-22T08:45:52.470Z,5.60
2019-02-22T08:49:57.721Z,5.50
2019-02-22T08:54:01.336Z,5.30
2019-02-22T08:58:06.566Z,5.10
2019-02-22T09:02:09.944Z,5.00
2019-02-22T09:06:13.363Z,5.10
2019-02-22T09:10:16.817Z,5.40
2019-02-22T09:14:20.328Z,5.40
2019-02-22T09:18:23.797Z,5.50
2019-02-22T09:22:27.348Z,5.30
2019-02-22T09:26:30.817Z,5.90
2019-02-22T09:30:34.500Z,5.80
2019-02-22T09:34:38.086Z,5.40
2019-02-22T09:38:41.905Z,5.30
2019-02-22T09:42:45.484Z,5.30
2019-02-22T09:46:48.884Z,5.50
2019-02-22T09:50:52.541Z,6.50
2019-02-22T09:54:56.056Z,7.40
2019-02-22T09:59:01.250Z,7.80
2019-02-22T10:03:04.773Z,7.80
2019-02-22T10:07:08.534Z,10.40
2019-02-22T10:11:12.302Z,12.00
2019-02-22T10:15:15.923Z,15.10
2019-02-22T10:19:21.322Z,16.40
2019-02-22T10:23:24.585Z,18.40
2019-02-22T10:27:30.030Z,16.40
2019-02-22T10:31:33.237Z,16.80
2019-02-22T10:35:36.751Z,15.60
2019-02-22T10:39:40.309Z,14.80
2019-02-22T10:43:43.822Z,14.80
2019-02-22T10:47:47.333Z,14.00
2019-02-22T10:51:50.981Z,13.70
2019-02-22T10:55:54.561Z,14.20
2019-02-22T10:59:58.151Z,14.00
2019-02-22T11:04:01.688Z,16.20
2019-02-22T11:08:05.364Z,15.20
2019-02-22T11:12:08.915Z,14.60
2019-02-22T11:16:12.386Z,15.30
2019-02-22T11:20:15.937Z,15.60
2019-02-22T11:24:20.007Z,12.40
2019-02-22T11:28:24.051Z,9.10
2019-02-22T11:32:29.297Z,8.10
2019-02-22T11:36:32.753Z,7.70
2019-02-22T11:40:36.223Z,7.50
2019-02-22T11:44:40.501Z,7.30
2019-02-22T11:48:44.205Z,7.40
2019-02-22T11:52:48.141Z,7.50
2019-02-22T11:56:51.737Z,7.50
2019-02-22T12:00:55.210Z,7.70
2019-02-22T12:04:59.696Z,8.00
2019-02-22T12:09:03.301Z,8.20
2019-02-22T12:13:07.780Z,8.00
2019-02-22T12:17:11.188Z,8.00
2019-02-22T12:21:14.860Z,8.20
2019-02-22T12:25:18.365Z,8.40
2019-02-22T12:29:21.836Z,8.20
2019-02-22T12:33:25.381Z,8.00
2019-02-22T12:37:30.061Z,8.10
2019-02-22T12:41:33.597Z,8.10
2019-02-22T12:45:37.152Z,8.10
2019-02-22T12:49:40.510Z,8.00
2019-02-22T12:53:44.343Z,7.90
2019-02-22T12:57:48.624Z,7.80
2019-02-22T13:01:52.125Z,7.90
2019-02-22T13:05:55.589Z,7.90
2019-02-22T13:09:59.143Z,8.00
2019-02-22T13:14:02.758Z,8.00
2019-02-22T13:18:06.224Z,8.20
2019-02-22T13:22:09.780Z,8.30
2019-02-22T13:26:13.262Z,8.40
2019-02-22T13:30:18.266Z,8.50
2019-02-22T13:34:21.705Z,8.50
2019-02-22T13:38:25.235Z,8.00
2019-02-22T13:42:28.732Z,7.90
2019-02-22T13:46:32.249Z,7.50
2019-02-22T13:50:35.895Z,7.40
2019-02-22T13:54:40.491Z,7.40
2019-02-22T13:58:43.925Z,7.40
2019-02-22T14:02:47.700Z,7.30
2019-02-22T14:06:51.270Z,7.30
2019-02-22T14:10:54.742Z,7.40
2019-02-22T14:14:58.250Z,7.10
2019-02-22T14:19:01.698Z,7.00
2019-02-22T14:23:05.270Z,7.00
2019-02-22T14:27:08.789Z,6.80
2019-02-22T14:31:12.405Z,6.70
2019-02-22T14:35:15.952Z,6.60
2019-02-22T14:39:19.466Z,6.60
2019-02-22T14:43:22.872Z,6.50
2019-02-22T14:47:26.348Z,6.60
2019-02-22T14:51:29.901Z,6.50
2019-02-22T14:55:33.294Z,6.40
2019-02-22T14:59:36.917Z,6.10
2019-02-22T15:03:40.346Z,5.90
2019-02-22T15:07:43.842Z,5.80
2019-02-22T15:11:47.309Z,5.60
2019-02-22T15:16:00.194Z,5.40
2019-02-22T15:19:57.652Z,5.30
2019-02-22T15:24:01.050Z,5.30
2019-02-22T15:28:04.573Z,5.30
2019-02-22T15:32:07.983Z,5.30
2019-02-22T15:36:11.499Z,5.30
2019-02-22T15:40:15.293Z,5.30
2019-02-22T15:44:18.825Z,5.20
2019-02-22T15:48:22.335Z,5.00
2019-02-22T15:52:25.711Z,5.00
2019-02-22T15:56:29.256Z,4.80
2019-02-22T16:00:34.751Z,4.90
2019-02-22T16:04:46.080Z,4.80
2019-02-22T16:08:51.302Z,4.80
2019-02-22T16:12:56.595Z,4.70
2019-02-22T16:16:59.773Z,4.50
2019-02-22T16:21:03.328Z,4.40
2019-02-22T16:25:18.508Z,4.20
2019-02-22T16:29:12.412Z,4.10
2019-02-22T16:33:17.692Z,4.00
2019-02-22T16:37:21.221Z,4.00
2019-02-22T16:41:24.775Z,3.90
2019-02-22T16:45:28.246Z,3.70
2019-02-22T16:49:31.692Z,3.50
2019-02-22T16:53:36.238Z,3.40
2019-02-22T16:57:40.896Z,3.30
2019-02-22T17:01:44.443Z,3.30
2019-02-22T17:05:48.150Z,3.30
2019-02-22T17:09:51.786Z,3.30
2019-02-22T17:13:55.330Z,3.30
2019-02-22T17:17:59.039Z,3.20
2019-02-22T17:22:02.615Z,3.10
2019-02-22T17:26:07.318Z,3.10
2019-02-22T17:30:13.656Z,3.00
2019-02-22T17:34:18.968Z,3.00
2019-02-22T17:38:22.495Z,3.00
2019-02-22T17:42:25.937Z,3.00
2019-02-22T17:46:29.375Z,2.90
2019-02-22T17:50:32.925Z,2.70
2019-02-22T17:54:36.437Z,2.50
2019-02-22T17:58:40.092Z,2.30
2019-02-22T18:02:43.665Z,2.10
2019-02-22T18:06:48.932Z,1.90
2019-02-22T18:10:52.469Z,1.90
2019-02-22T18:14:57.924Z,1.90
2019-02-22T18:19:01.131Z,2.00
2019-02-22T18:23:05.666Z,1.90
2019-02-22T18:27:09.127Z,2.00
2019-02-22T18:31:12.895Z,1.90
2019-02-22T18:35:16.405Z,1.90
2019-02-22T18:39:19.916Z,2.00
2019-02-22T18:43:23.427Z,2.00
2019-02-22T18:47:26.938Z,2.10
2019-02-22T18:51:30.341Z,2.30
2019-02-22T18:55:33.815Z,2.40
2019-02-22T18:59:37.267Z,2.40
2019-02-22T19:03:40.705Z,2.40
2019-02-22T19:07:44.190Z,2.40
2019-02-22T19:11:48.114Z,2.50
2019-02-22T19:15:51.583Z,2.50
2019-02-22T19:19:55.234Z,2.40
2019-02-22T19:23:58.847Z,2.20
2019-02-22T19:28:02.461Z,2.10
2019-02-22T19:32:05.940Z,2.00
2019-02-22T19:36:09.584Z,1.80
2019-02-22T19:40:15.556Z,1.70
2019-02-22T19:44:19.130Z,1.50
2019-02-22T19:48:22.740Z,1.40
2019-02-22T19:52:26.294Z,1.50
2019-02-22T19:56:29.707Z,1.60
2019-02-22T20:00:33.075Z,1.60
2019-02-22T20:04:36.582Z,1.60
2019-02-22T20:08:40.135Z,1.40
2019-02-22T20:12:43.609Z,1.30
2019-02-22T20:16:47.363Z,0.90
2019-02-22T20:20:51.078Z,0.70
2019-02-22T20:24:54.645Z,0.70
2019-02-22T20:28:58.304Z,0.70
2019-02-22T20:33:01.819Z,0.80
2019-02-22T20:37:05.407Z,1.00
2019-02-22T20:41:09.043Z,1.10
2019-02-22T20:45:12.820Z,1.20
2019-02-22T20:49:16.335Z,1.20
2019-02-22T20:53:19.843Z,1.20
2019-02-22T20:57:23.396Z,1.20
2019-02-22T21:01:26.877Z,1.20
2019-02-22T21:05:30.829Z,1.20
2019-02-22T21:09:34.340Z,1.30
2019-02-22T21:13:37.809Z,1.30
2019-02-22T21:17:41.425Z,1.20
2019-02-22T21:21:44.975Z,1.10
2019-02-22T21:25:48.536Z,1.10
2019-02-22T21:29:51.998Z,1.10
2019-02-22T21:33:55.509Z,1.10
2019-02-22T21:37:59.024Z,1.00
2019-02-22T21:42:02.392Z,1.00
2019-02-22T21:46:05.825Z,1.00
2019-02-22T21:50:13.711Z,1.00
2019-02-22T21:54:17.263Z,1.00
2019-02-22T21:58:20.838Z,1.00
2019-02-22T22:02:24.655Z,1.00
2019-02-22T22:06:28.207Z,1.00
2019-02-22T22:10:31.719Z,1.00
2019-02-22T22:14:35.192Z,0.90
2019-02-22T22:18:39.154Z,1.00
2019-02-22T22:22:42.764Z,1.00
2019-02-22T22:26:46.376Z,1.00
2019-02-22T22:30:49.893Z,0.90
2019-02-22T22:34:55.184Z,0.90
2019-02-22T22:38:59.164Z,0.90
2019-02-22T22:43:02.573Z,0.90
2019-02-22T22:47:06.083Z,0.90
2019-02-22T22:51:09.553Z,0.90
2019-02-22T22:55:13.063Z,0.90
2019-02-22T22:59:16.577Z,0.90
2019-02-22T23:03:20.600Z,0.80
2019-02-22T23:07:24.063Z,0.80
2019-02-22T23:11:27.765Z,0.80
2019-02-22T23:15:31.277Z,0.80
2019-02-22T23:19:34.746Z,0.90
2019-02-22T23:23:38.401Z,0.80
2019-02-22T23:27:41.913Z,0.70
2019-02-22T23:31:45.322Z,0.60
2019-02-22T23:35:48.833Z,0.50
2019-02-22T23:39:52.304Z,0.40
2019-02-22T23:43:56.162Z,0.40
2019-02-22T23:48:01.273Z,0.30
2019-02-22T23:52:04.779Z,0.20
2019-02-22T23:56:08.249Z,0.30
